Pulaski, Tennessee
Current Conditions -  °F | °C
As of 8:15 PM on Thursday 18 Dec 2014 (Local Time) from KFYM Reporting Station
Broken Clouds Broken Clouds  
Wind Chill: 31°   Ceiling: 4100
Heat Index: 36°   Visibility: 10mi
Dew Point: 34°   Wind: 6mph
Humidity: 93%   Direction: 360°N
Pressure: 30.19"   Gusts: NA
Location:  35.2°N, 87.03°W
Report Text: KFYM 190215Z AUTO 36005KT 10SM BKN041 02/01 A3019 RMK
Loading
Personal Weather Stations






























Interactive Weather Map New forecast layout! Learn more

10-Day Weather Forecast

Advertisements
Track Severe Weather on mobile